Oviedo en Asturias

latitud = 43° 21' 16''N | longitud = 005° 52' 22''W
231 metros sobre el nivel del mar | datos mensuales

Fecha, hora, temperatura, viento dirección y velocidad, humedad y presión.

  • 25-09-2017 00:00:00 | 15.50°C | Noroeste |8.00 km/h | 98.00% | 981.70 hPa
  • 24-09-2017 23:00:00 | 15.90°C | Norte |2.00 km/h | 96.00% | 981.50 hPa
  • 24-09-2017 22:00:00 | 16.50°C | Este |19.00 km/h | 95.00% | 980.40 hPa
  • 24-09-2017 21:00:00 | 17.80°C | Sudoeste |6.00 km/h | 84.00% | 981.70 hPa
  • 24-09-2017 20:00:00 | 18.50°C | Norte |4.00 km/h | 75.00% | 980.10 hPa
  • 24-09-2017 19:00:00 | 20.00°C | Nordeste |7.00 km/h | 59.00% | 979.40 hPa
  • 24-09-2017 18:00:00 | 21.00°C | Nordeste |11.00 km/h | 54.00% | 979.00 hPa
  • 24-09-2017 17:00:00 | 22.80°C | Nordeste |8.00 km/h | 63.00% | 978.90 hPa
  • 24-09-2017 16:00:00 | 23.50°C | Este |6.00 km/h | 62.00% | 978.80 hPa
  • 24-09-2017 15:00:00 | 23.90°C | Este |7.00 km/h | 60.00% | 978.60 hPa
  • 24-09-2017 14:00:00 | 22.60°C | Oeste |5.00 km/h | 69.00% | 978.90 hPa
  • 24-09-2017 13:00:00 | 21.40°C | Norte |4.00 km/h | 69.00% | 979.10 hPa
  • 24-09-2017 12:00:00 | 19.20°C | Sur |3.00 km/h | 80.00% | 979.50 hPa
  • 24-09-2017 11:00:00 | 15.50°C | Oeste |2.00 km/h | 96.00% | 979.70 hPa
  • 24-09-2017 10:00:00 | 13.80°C | Sur |5.00 km/h | 100.00% | 979.40 hPa
  • 24-09-2017 09:00:00 | 12.80°C | Sudoeste |6.00 km/h | 100.00% | 979.20 hPa
  • 24-09-2017 08:00:00 | 12.90°C | Sur |9.00 km/h | 100.00% | 979.10 hPa
  • 24-09-2017 07:00:00 | 13.00°C | Sur |4.00 km/h | 100.00% | 979.00 hPa
  • 24-09-2017 06:00:00 | 13.40°C | Sur |3.00 km/h | 99.00% | 979.00 hPa
  • 24-09-2017 05:00:00 | 14.10°C | Noroeste |3.00 km/h | 100.00% | 979.20 hPa
  • 24-09-2017 04:00:00 | 14.20°C | Sudoeste |3.00 km/h | 99.00% | 979.50 hPa
  • 24-09-2017 03:00:00 | 14.70°C | Sur |7.00 km/h | 98.00% | 979.90 hPa
  • 24-09-2017 02:00:00 | 15.20°C | Sudeste |4.00 km/h | 97.00% | 979.90 hPa
  • 24-09-2017 01:00:00 | 15.30°C | Sudeste |7.00 km/h | 98.00% | 980.20 hPa